createdAt,value
2018-01-27T00:00:03.567Z,22.90
2018-01-27T00:01:03.552Z,22.00
2018-01-27T00:02:03.544Z,23.40
2018-01-27T00:03:03.539Z,22.50
2018-01-27T00:04:03.528Z,22.40
2018-01-27T00:05:03.522Z,22.50
2018-01-27T00:06:03.568Z,23.50
2018-01-27T00:07:03.509Z,24.20
2018-01-27T00:08:03.554Z,23.20
2018-01-27T00:09:03.495Z,23.00
2018-01-27T00:10:03.491Z,24.80
2018-01-27T00:11:03.475Z,24.30
2018-01-27T00:12:03.470Z,24.40
2018-01-27T00:13:03.462Z,23.00
2018-01-27T00:14:03.453Z,24.40
2018-01-27T00:15:03.450Z,24.00
2018-01-27T00:16:03.442Z,26.00
2018-01-27T00:17:03.436Z,24.00
2018-01-27T00:18:03.428Z,23.80
2018-01-27T00:19:03.421Z,24.60
2018-01-27T00:20:03.416Z,25.00
2018-01-27T00:21:03.405Z,24.20
2018-01-27T00:22:03.396Z,23.40
2018-01-27T00:23:03.388Z,23.40
2018-01-27T00:24:03.382Z,24.00
2018-01-27T00:25:03.369Z,22.60
2018-01-27T00:26:03.361Z,23.30
2018-01-27T00:27:03.354Z,23.80
2018-01-27T00:28:03.353Z,25.50
2018-01-27T00:29:03.341Z,23.20
2018-01-27T00:30:03.333Z,22.30
2018-01-27T00:31:03.331Z,24.20
2018-01-27T00:32:03.321Z,23.10
2018-01-27T00:33:03.320Z,24.90
2018-01-27T00:34:03.310Z,23.40
2018-01-27T00:35:03.300Z,23.60
2018-01-27T00:36:03.295Z,22.50
2018-01-27T00:37:03.286Z,23.70
2018-01-27T00:38:03.282Z,22.10
2018-01-27T00:39:03.266Z,23.80
2018-01-27T00:40:03.260Z,23.50
2018-01-27T00:41:03.256Z,24.60
2018-01-27T00:42:03.249Z,23.50
2018-01-27T00:43:03.239Z,25.70
2018-01-27T00:44:03.230Z,23.40
2018-01-27T00:45:03.221Z,24.00
2018-01-27T00:46:03.214Z,25.30
2018-01-27T00:47:03.210Z,24.50
2018-01-27T00:48:03.205Z,24.50
2018-01-27T00:49:03.197Z,24.10
2018-01-27T00:50:03.188Z,25.40
2018-01-27T00:51:03.181Z,24.20
2018-01-27T00:52:03.177Z,24.40
2018-01-27T00:53:03.168Z,24.60
2018-01-27T00:54:03.160Z,23.80
2018-01-27T00:55:03.149Z,23.10
2018-01-27T00:56:03.145Z,23.60
2018-01-27T00:57:03.137Z,23.60
2018-01-27T00:58:03.238Z,22.80
2018-01-27T00:59:03.121Z,22.90
2018-01-27T01:00:03.114Z,23.30
2018-01-27T01:01:03.104Z,24.60
2018-01-27T01:02:03.096Z,23.00
2018-01-27T01:03:03.092Z,23.40
2018-01-27T01:04:03.087Z,24.70
2018-01-27T01:05:03.078Z,24.20
2018-01-27T01:06:03.072Z,24.20
2018-01-27T01:07:03.065Z,23.50
2018-01-27T01:08:03.054Z,22.80
2018-01-27T01:09:03.047Z,22.80
2018-01-27T01:10:03.038Z,23.80
2018-01-27T01:11:03.028Z,23.20
2018-01-27T01:12:03.022Z,22.70
2018-01-27T01:13:03.013Z,23.10
2018-01-27T01:14:03.009Z,23.60
2018-01-27T01:15:02.998Z,24.20
2018-01-27T01:16:02.994Z,25.10
2018-01-27T01:17:02.982Z,23.10
2018-01-27T01:18:02.974Z,22.40
2018-01-27T01:19:02.971Z,24.10
2018-01-27T01:20:02.962Z,24.40
2018-01-27T01:21:02.956Z,24.60
2018-01-27T01:22:02.950Z,23.70
2018-01-27T01:23:02.942Z,23.20
2018-01-27T01:24:02.932Z,24.30
2018-01-27T01:25:02.923Z,23.00
2018-01-27T01:26:02.914Z,22.10
2018-01-27T01:27:02.902Z,24.30
2018-01-27T01:28:02.895Z,24.10
2018-01-27T01:29:02.890Z,24.50
2018-01-27T01:30:02.883Z,24.20
2018-01-27T01:31:02.873Z,24.60
2018-01-27T01:32:02.864Z,23.00
2018-01-27T01:33:02.860Z,23.80
2018-01-27T01:34:02.848Z,23.10
2018-01-27T01:35:02.845Z,24.40
2018-01-27T01:36:02.838Z,23.50
2018-01-27T01:37:02.831Z,23.80
2018-01-27T01:38:02.825Z,22.60
2018-01-27T01:39:02.812Z,24.00
2018-01-27T01:40:02.806Z,24.20
2018-01-27T01:41:02.796Z,23.70
2018-01-27T01:42:02.797Z,24.20
2018-01-27T01:43:02.782Z,23.60
2018-01-27T01:44:02.771Z,23.80
2018-01-27T01:45:02.763Z,23.90
2018-01-27T01:46:02.754Z,24.80
2018-01-27T01:47:02.749Z,23.80
2018-01-27T01:48:02.740Z,24.00
2018-01-27T01:49:02.734Z,22.50
2018-01-27T01:50:02.725Z,24.90
2018-01-27T01:51:02.722Z,24.40
2018-01-27T01:52:02.714Z,25.20
2018-01-27T01:53:02.712Z,24.50
2018-01-27T01:54:02.697Z,24.20
2018-01-27T01:55:02.691Z,25.80
2018-01-27T01:56:02.682Z,24.60
2018-01-27T01:57:02.676Z,25.20
2018-01-27T01:58:02.667Z,25.50
2018-01-27T01:59:02.656Z,25.70
2018-01-27T02:00:02.651Z,25.20
2018-01-27T02:01:02.642Z,26.40
2018-01-27T02:02:02.634Z,26.40
2018-01-27T02:03:02.627Z,25.10
2018-01-27T02:04:02.620Z,26.30
2018-01-27T02:05:02.610Z,24.00
2018-01-27T02:06:02.600Z,23.90
2018-01-27T02:07:02.598Z,26.10
2018-01-27T02:08:02.590Z,26.40
2018-01-27T02:09:02.585Z,26.80
2018-01-27T02:10:02.577Z,26.10
2018-01-27T02:11:02.568Z,25.20
2018-01-27T02:12:02.560Z,25.00
2018-01-27T02:13:02.552Z,25.10
2018-01-27T02:14:02.543Z,25.10
2018-01-27T02:15:02.533Z,24.90
2018-01-27T02:16:02.526Z,24.50
2018-01-27T02:17:02.522Z,23.40
2018-01-27T02:18:02.511Z,24.80
2018-01-27T02:19:02.508Z,24.80
2018-01-27T02:20:02.498Z,27.60
2018-01-27T02:21:02.491Z,25.70
2018-01-27T02:22:02.481Z,26.70
2018-01-27T02:23:02.470Z,24.20
2018-01-27T02:24:02.462Z,24.70
2018-01-27T02:25:02.457Z,23.90
2018-01-27T02:26:02.453Z,23.60
2018-01-27T02:27:02.441Z,23.30
2018-01-27T02:28:02.432Z,22.80
2018-01-27T02:29:02.426Z,23.10
2018-01-27T02:30:02.417Z,26.10
2018-01-27T02:31:02.415Z,23.50
2018-01-27T02:32:02.410Z,23.60
2018-01-27T02:33:02.401Z,24.30
2018-01-27T02:34:02.392Z,23.70
2018-01-27T02:35:02.385Z,23.20
2018-01-27T02:36:02.378Z,24.00
2018-01-27T02:37:02.371Z,23.40
2018-01-27T02:38:02.363Z,23.00
2018-01-27T02:39:02.350Z,22.90
2018-01-27T02:40:02.342Z,23.40
2018-01-27T02:41:02.339Z,23.40
2018-01-27T02:42:02.326Z,23.80
2018-01-27T02:43:02.323Z,25.00
2018-01-27T02:44:02.314Z,25.10
2018-01-27T02:45:02.306Z,26.60
2018-01-27T02:46:02.297Z,25.30
2018-01-27T02:47:02.296Z,24.60
2018-01-27T02:48:02.288Z,25.90
2018-01-27T02:49:02.280Z,27.10
2018-01-27T02:50:02.271Z,25.20
2018-01-27T02:51:02.264Z,24.90
2018-01-27T02:52:02.256Z,25.00
2018-01-27T02:53:02.261Z,23.60
2018-01-27T02:54:02.241Z,24.00
2018-01-27T02:55:02.232Z,24.70
2018-01-27T02:56:02.224Z,24.10
2018-01-27T02:57:02.219Z,25.10
2018-01-27T02:58:02.207Z,24.10
2018-01-27T02:59:02.199Z,23.80
2018-01-27T03:00:02.257Z,24.20
2018-01-27T03:01:02.184Z,23.00
2018-01-27T03:02:02.177Z,23.60
2018-01-27T03:03:02.174Z,22.70
2018-01-27T03:04:02.167Z,22.30
2018-01-27T03:05:02.158Z,23.50
2018-01-27T03:06:02.150Z,23.70
2018-01-27T03:07:02.144Z,23.60
2018-01-27T03:08:02.138Z,24.50
2018-01-27T03:09:02.129Z,24.80
2018-01-27T03:10:02.120Z,24.10
2018-01-27T03:11:02.112Z,23.80
2018-01-27T03:12:02.103Z,25.00
2018-01-27T03:13:02.096Z,25.40
2018-01-27T03:14:02.087Z,25.80
2018-01-27T03:15:02.081Z,25.40
2018-01-27T03:16:02.073Z,25.90
2018-01-27T03:17:02.068Z,24.90
2018-01-27T03:18:02.058Z,24.60
2018-01-27T03:19:02.055Z,25.20
2018-01-27T03:20:02.048Z,25.10
2018-01-27T03:21:02.041Z,25.80
2018-01-27T03:22:02.034Z,24.90
2018-01-27T03:23:02.027Z,26.10
2018-01-27T03:24:02.013Z,25.60
2018-01-27T03:25:02.006Z,24.70
2018-01-27T03:26:01.999Z,25.70
2018-01-27T03:27:01.994Z,26.50
2018-01-27T03:28:01.988Z,25.20
2018-01-27T03:29:01.980Z,26.90
2018-01-27T03:30:01.975Z,26.60
2018-01-27T03:31:01.967Z,26.60
2018-01-27T03:32:01.959Z,25.90
2018-01-27T03:33:01.955Z,27.00
2018-01-27T03:34:01.943Z,26.90
2018-01-27T03:35:01.932Z,28.50
2018-01-27T03:36:01.926Z,28.60
2018-01-27T03:37:01.920Z,28.20
2018-01-27T03:38:01.912Z,27.90
2018-01-27T03:39:01.902Z,29.00
2018-01-27T03:40:01.896Z,28.00
2018-01-27T03:41:01.889Z,26.30
2018-01-27T03:42:01.879Z,27.20
2018-01-27T03:43:01.875Z,27.60
2018-01-27T03:44:01.868Z,25.50
2018-01-27T03:45:01.864Z,26.70
2018-01-27T03:46:01.855Z,24.90
2018-01-27T03:47:01.847Z,25.00
2018-01-27T03:48:01.839Z,24.90
2018-01-27T03:49:01.830Z,24.70
2018-01-27T03:50:01.824Z,26.50
2018-01-27T03:51:01.810Z,24.70
2018-01-27T03:52:01.803Z,25.60
2018-01-27T03:53:01.800Z,25.30
2018-01-27T03:54:01.788Z,26.10
2018-01-27T03:55:01.780Z,26.70
2018-01-27T03:56:01.771Z,26.60
2018-01-27T03:57:01.765Z,26.80
2018-01-27T03:58:01.757Z,27.50
2018-01-27T03:59:01.756Z,29.70
2018-01-27T04:00:01.746Z,29.10
2018-01-27T04:01:01.739Z,27.50
2018-01-27T04:02:01.730Z,28.40
2018-01-27T04:03:01.723Z,30.10
2018-01-27T04:04:01.766Z,31.70
2018-01-27T04:05:01.709Z,32.50
2018-01-27T04:06:01.700Z,33.00
2018-01-27T04:07:01.718Z,32.00
2018-01-27T04:08:01.681Z,31.70
2018-01-27T04:09:01.674Z,33.40
2018-01-27T04:10:01.665Z,34.60
2018-01-27T04:11:01.656Z,33.80
2018-01-27T04:12:01.649Z,35.40
2018-01-27T04:13:01.641Z,35.40
2018-01-27T04:14:01.633Z,35.90
2018-01-27T04:15:01.630Z,39.20
2018-01-27T04:16:01.629Z,39.90
2018-01-27T04:17:01.615Z,40.70
2018-01-27T04:18:01.606Z,39.20
2018-01-27T04:19:01.599Z,42.60
2018-01-27T04:20:01.590Z,42.00
2018-01-27T04:21:01.582Z,42.20
2018-01-27T04:22:01.573Z,44.70
2018-01-27T04:23:01.561Z,46.40
2018-01-27T04:24:01.554Z,47.40
2018-01-27T04:25:01.546Z,48.40
2018-01-27T04:26:01.536Z,47.90
2018-01-27T04:27:01.533Z,49.90
2018-01-27T04:28:01.524Z,50.30
2018-01-27T04:29:01.517Z,49.90
2018-01-27T04:30:01.507Z,52.20
2018-01-27T04:31:01.496Z,50.30
2018-01-27T04:32:01.487Z,50.00
2018-01-27T04:33:01.480Z,51.50
2018-01-27T04:34:01.469Z,50.30
2018-01-27T04:35:01.463Z,50.80
2018-01-27T04:36:01.453Z,50.50
2018-01-27T04:37:01.445Z,50.90
2018-01-27T04:38:01.436Z,51.30
2018-01-27T04:39:01.433Z,49.40
2018-01-27T04:40:01.425Z,50.90
2018-01-27T04:41:01.418Z,50.80
2018-01-27T04:42:01.409Z,49.40
2018-01-27T04:43:01.399Z,49.10
2018-01-27T04:44:01.392Z,48.70
2018-01-27T04:45:01.384Z,48.60
2018-01-27T04:46:01.375Z,49.90
2018-01-27T04:47:01.362Z,48.80
2018-01-27T04:48:01.354Z,52.80
2018-01-27T04:49:01.346Z,50.50
2018-01-27T04:50:01.338Z,52.80
2018-01-27T04:51:01.332Z,50.30
2018-01-27T04:52:01.321Z,51.20
2018-01-27T04:53:01.313Z,50.80
2018-01-27T04:54:01.305Z,50.90
2018-01-27T04:55:01.300Z,48.60
2018-01-27T04:56:01.293Z,50.80
2018-01-27T04:57:01.290Z,51.30
2018-01-27T04:58:01.276Z,51.20
2018-01-27T04:59:01.268Z,51.10
2018-01-27T05:00:01.260Z,52.20
2018-01-27T05:01:01.252Z,51.00
2018-01-27T05:02:01.242Z,51.70
2018-01-27T05:03:01.232Z,51.20
2018-01-27T05:04:01.221Z,51.20
2018-01-27T05:05:01.213Z,49.30
2018-01-27T05:06:01.206Z,49.30
2018-01-27T05:07:01.195Z,49.10
2018-01-27T05:08:01.188Z,48.00
2018-01-27T05:09:01.181Z,50.30
2018-01-27T05:10:01.171Z,48.00
2018-01-27T05:11:01.167Z,49.60
2018-01-27T05:12:01.159Z,50.20
2018-01-27T05:13:01.150Z,49.00
2018-01-27T05:14:01.141Z,48.30
2018-01-27T05:15:01.131Z,47.40
2018-01-27T05:16:01.123Z,50.70
2018-01-27T05:17:01.116Z,50.90
2018-01-27T05:18:01.105Z,49.70
2018-01-27T05:19:01.093Z,49.90
2018-01-27T05:20:01.084Z,53.10
2018-01-27T05:21:01.075Z,52.90
2018-01-27T05:22:01.066Z,53.90
2018-01-27T05:23:01.057Z,55.30
2018-01-27T05:24:01.050Z,52.70
2018-01-27T05:25:01.041Z,53.50
2018-01-27T05:26:01.030Z,54.60
2018-01-27T05:27:01.026Z,53.30
2018-01-27T05:28:01.025Z,54.00
2018-01-27T05:29:01.008Z,53.90
2018-01-27T05:30:00.998Z,51.10
2018-01-27T05:31:00.990Z,51.50
2018-01-27T05:32:00.982Z,47.80
2018-01-27T05:33:00.972Z,48.20
2018-01-27T05:34:00.964Z,46.70
2018-01-27T05:35:00.950Z,47.70
2018-01-27T05:36:00.941Z,48.80
2018-01-27T05:37:00.932Z,47.50
2018-01-27T05:38:00.922Z,47.30
2018-01-27T05:39:00.916Z,47.00
2018-01-27T05:40:00.907Z,46.00
2018-01-27T05:41:00.897Z,44.60
2018-01-27T05:42:00.887Z,44.20
2018-01-27T05:43:00.884Z,43.10
2018-01-27T05:44:00.874Z,45.70
2018-01-27T05:45:00.866Z,45.20
2018-01-27T05:46:00.857Z,50.10
2018-01-27T05:47:00.848Z,52.00
2018-01-27T05:48:00.841Z,56.00
2018-01-27T05:49:00.832Z,58.90
2018-01-27T05:50:00.821Z,56.20
2018-01-27T05:51:00.809Z,61.30
2018-01-27T05:52:00.801Z,61.50
2018-01-27T05:53:00.792Z,60.80
2018-01-27T05:54:00.782Z,65.90
2018-01-27T05:55:00.775Z,62.30
2018-01-27T05:56:00.774Z,65.10
2018-01-27T05:57:00.757Z,61.90
2018-01-27T05:58:00.749Z,64.80
2018-01-27T05:59:00.744Z,65.10
2018-01-27T06:00:00.736Z,65.40
2018-01-27T06:01:00.726Z,61.60
2018-01-27T06:02:00.717Z,64.30
2018-01-27T06:03:00.709Z,61.30
2018-01-27T06:04:00.700Z,63.90
2018-01-27T06:05:00.694Z,58.80
2018-01-27T06:06:00.687Z,59.70
2018-01-27T06:07:00.671Z,63.50
2018-01-27T06:08:00.664Z,62.70
2018-01-27T06:09:00.656Z,59.20
2018-01-27T06:10:00.647Z,58.40
2018-01-27T06:11:00.638Z,60.00
2018-01-27T06:12:00.629Z,60.20
2018-01-27T06:13:00.620Z,61.60
2018-01-27T06:14:00.610Z,61.40
2018-01-27T06:15:00.606Z,62.60
2018-01-27T06:16:00.599Z,64.50
2018-01-27T06:17:00.589Z,62.70
2018-01-27T06:18:00.581Z,62.20
2018-01-27T06:19:00.573Z,67.20
2018-01-27T06:20:00.565Z,69.90
2018-01-27T06:21:00.556Z,67.70
2018-01-27T06:22:00.546Z,71.40
2018-01-27T06:23:00.535Z,72.20
2018-01-27T06:24:00.526Z,72.90
2018-01-27T06:25:00.516Z,73.20
2018-01-27T06:26:00.507Z,72.20
2018-01-27T06:27:00.499Z,76.50
2018-01-27T06:28:00.489Z,78.10
2018-01-27T06:29:00.482Z,75.90
2018-01-27T06:30:00.473Z,74.80
2018-01-27T06:31:00.473Z,76.90
2018-01-27T06:32:00.458Z,71.30
2018-01-27T06:33:00.449Z,74.80
2018-01-27T06:34:00.441Z,77.90
2018-01-27T06:35:00.426Z,77.90
2018-01-27T06:36:00.417Z,77.30
2018-01-27T06:37:00.408Z,74.40
2018-01-27T06:38:00.401Z,75.20
2018-01-27T06:39:00.395Z,75.00
2018-01-27T06:40:00.387Z,75.10
2018-01-27T06:41:00.377Z,76.50
2018-01-27T06:42:00.368Z,76.00
2018-01-27T06:43:00.359Z,75.10
2018-01-27T06:44:00.350Z,79.40
2018-01-27T06:45:00.340Z,75.70
2018-01-27T06:46:00.330Z,78.90
2018-01-27T06:47:00.318Z,79.90
2018-01-27T06:48:00.307Z,82.20
2018-01-27T06:49:00.299Z,79.30
2018-01-27T06:50:00.290Z,76.20
2018-01-27T06:51:00.280Z,74.80
2018-01-27T06:52:00.273Z,70.50
2018-01-27T06:53:00.261Z,68.40
2018-01-27T06:54:00.251Z,70.40
2018-01-27T06:55:00.248Z,71.00
2018-01-27T06:56:00.239Z,67.00
2018-01-27T06:57:00.232Z,67.00
2018-01-27T06:58:00.219Z,64.10
2018-01-27T06:59:00.211Z,63.50
2018-01-27T07:00:00.201Z,62.80
2018-01-27T07:01:00.193Z,63.70
2018-01-27T07:02:00.181Z,60.50
2018-01-27T07:03:00.169Z,59.40
2018-01-27T07:04:00.160Z,58.30
2018-01-27T07:05:00.152Z,57.00
2018-01-27T07:06:00.142Z,57.80
2018-01-27T07:07:00.134Z,58.30
2018-01-27T07:08:00.125Z,60.20
2018-01-27T07:09:00.116Z,60.80
2018-01-27T07:10:00.105Z,63.50
2018-01-27T07:11:00.101Z,61.60
2018-01-27T07:12:00.093Z,59.20
2018-01-27T07:13:00.084Z,59.40
2018-01-27T07:14:00.074Z,57.40
2018-01-27T07:15:00.068Z,57.90
2018-01-27T07:16:00.068Z,57.40
2018-01-27T07:17:00.051Z,56.60
2018-01-27T07:18:00.040Z,58.00
2018-01-27T07:19:00.027Z,56.40
2018-01-27T07:20:00.021Z,56.50
2018-01-27T07:21:00.028Z,58.10
2018-01-27T07:22:00.005Z,56.30
2018-01-27T07:22:59.992Z,58.30
2018-01-27T07:23:59.982Z,55.80
2018-01-27T07:24:59.978Z,58.60
2018-01-27T07:25:59.965Z,58.80
2018-01-27T07:26:59.960Z,61.30
2018-01-27T07:27:59.953Z,59.20
2018-01-27T07:28:59.944Z,62.10
2018-01-27T07:29:59.938Z,60.70
2018-01-27T07:30:59.927Z,63.20
2018-01-27T07:31:59.918Z,61.10
2018-01-27T07:32:59.909Z,57.30
2018-01-27T07:33:59.901Z,56.80
2018-01-27T07:34:59.889Z,55.80
2018-01-27T07:35:59.879Z,56.30
2018-01-27T07:36:59.873Z,58.00
2018-01-27T07:37:59.861Z,61.50
2018-01-27T07:38:59.859Z,59.30
2018-01-27T07:39:59.850Z,60.80
2018-01-27T07:40:59.841Z,60.60
2018-01-27T07:41:59.832Z,59.50
2018-01-27T07:42:59.820Z,60.50
2018-01-27T07:43:59.811Z,60.60
2018-01-27T07:44:59.803Z,59.40
2018-01-27T07:45:59.832Z,59.10
2018-01-27T07:46:59.788Z,57.80
2018-01-27T07:47:59.778Z,57.40
2018-01-27T07:48:59.769Z,59.40
2018-01-27T07:49:59.762Z,61.00
2018-01-27T07:50:59.757Z,60.40
2018-01-27T07:51:59.749Z,60.70
2018-01-27T07:52:59.741Z,58.80
2018-01-27T07:53:59.733Z,59.40
2018-01-27T07:54:59.726Z,60.70
2018-01-27T07:55:59.716Z,62.60
2018-01-27T07:56:59.708Z,63.90
2018-01-27T07:57:59.700Z,62.70
2018-01-27T07:58:59.689Z,63.60
2018-01-27T07:59:59.680Z,62.60
2018-01-27T08:00:59.671Z,64.20
2018-01-27T08:01:59.662Z,66.90
2018-01-27T08:02:59.654Z,65.30
2018-01-27T08:03:59.647Z,67.30
2018-01-27T08:04:59.640Z,68.50
2018-01-27T08:05:59.630Z,65.80
2018-01-27T08:06:59.627Z,62.90
2018-01-27T08:07:59.618Z,63.90
2018-01-27T08:08:59.612Z,64.10
2018-01-27T08:09:59.605Z,65.70
2018-01-27T08:10:59.595Z,61.00
2018-01-27T08:11:59.588Z,61.40
2018-01-27T08:12:59.579Z,63.70
2018-01-27T08:13:59.571Z,61.50
2018-01-27T08:14:59.560Z,64.00
2018-01-27T08:15:59.552Z,63.50
2018-01-27T08:16:59.545Z,62.80
2018-01-27T08:17:59.536Z,62.20
2018-01-27T08:18:59.528Z,63.70
2018-01-27T08:19:59.526Z,61.70
2018-01-27T08:20:59.512Z,64.50
2018-01-27T08:21:59.505Z,59.80
2018-01-27T08:22:59.503Z,62.20
2018-01-27T08:23:59.494Z,62.30
2018-01-27T08:24:59.486Z,61.10
2018-01-27T08:25:59.477Z,61.70
2018-01-27T08:26:59.470Z,64.30
2018-01-27T08:27:59.462Z,61.70
2018-01-27T08:28:59.456Z,60.90
2018-01-27T08:29:59.447Z,62.30
2018-01-27T08:30:59.435Z,60.90
2018-01-27T08:31:59.428Z,61.20
2018-01-27T08:32:59.420Z,59.60
2018-01-27T08:33:59.412Z,58.70
2018-01-27T08:34:59.416Z,59.50
2018-01-27T08:35:59.397Z,58.50
2018-01-27T08:36:59.395Z,59.10
2018-01-27T08:37:59.380Z,60.80
2018-01-27T08:38:59.378Z,60.20
2018-01-27T08:39:59.369Z,61.20
2018-01-27T08:40:59.362Z,60.50
2018-01-27T08:41:59.352Z,61.30
2018-01-27T08:42:59.343Z,60.70
2018-01-27T08:43:59.334Z,58.40
2018-01-27T08:44:59.327Z,55.50
2018-01-27T08:45:59.317Z,53.90
2018-01-27T08:46:59.316Z,51.80
2018-01-27T08:47:59.308Z,54.50
2018-01-27T08:48:59.301Z,51.40
2018-01-27T08:49:59.294Z,51.50
2018-01-27T08:50:59.286Z,53.60
2018-01-27T08:51:59.280Z,53.70
2018-01-27T08:52:59.321Z,54.00
2018-01-27T08:53:59.266Z,53.50
2018-01-27T08:54:59.254Z,51.30
2018-01-27T08:55:59.249Z,53.60
2018-01-27T08:56:59.242Z,52.30
2018-01-27T08:57:59.236Z,52.60
2018-01-27T08:58:59.230Z,53.80
2018-01-27T08:59:59.224Z,57.10
2018-01-27T09:00:59.218Z,55.70
2018-01-27T09:01:59.212Z,53.40
2018-01-27T09:02:59.209Z,53.80
2018-01-27T09:03:59.203Z,57.30
2018-01-27T09:04:59.198Z,55.30
2018-01-27T09:05:59.192Z,59.20
2018-01-27T09:06:59.185Z,56.60
2018-01-27T09:07:59.180Z,56.80
2018-01-27T09:08:59.172Z,57.90
2018-01-27T09:09:59.166Z,56.80
2018-01-27T09:10:59.155Z,59.60
2018-01-27T09:11:59.151Z,57.60
2018-01-27T09:12:59.145Z,56.10
2018-01-27T09:13:59.178Z,57.90
2018-01-27T09:14:59.131Z,57.90
2018-01-27T09:15:59.126Z,58.10
2018-01-27T09:16:59.120Z,59.10
2018-01-27T09:17:59.112Z,61.20
2018-01-27T09:18:59.114Z,59.70
2018-01-27T09:19:59.105Z,59.30
2018-01-27T09:20:59.098Z,60.50
2018-01-27T09:21:59.091Z,61.00
2018-01-27T09:22:59.086Z,59.40
2018-01-27T09:23:59.081Z,60.10
2018-01-27T09:24:59.074Z,62.80
2018-01-27T09:25:59.067Z,59.80
2018-01-27T09:26:59.055Z,58.00
2018-01-27T09:27:59.050Z,60.10
2018-01-27T09:28:59.043Z,60.70
2018-01-27T09:29:59.036Z,59.30
2018-01-27T09:30:59.031Z,59.40
2018-01-27T09:31:59.023Z,59.10
2018-01-27T09:32:59.017Z,57.80
2018-01-27T09:33:59.009Z,57.10
2018-01-27T09:34:59.009Z,56.50
2018-01-27T09:35:59.002Z,58.00
2018-01-27T09:36:58.996Z,59.40
2018-01-27T09:37:58.988Z,58.40
2018-01-27T09:38:58.983Z,53.20
2018-01-27T09:39:58.976Z,54.50
2018-01-27T09:40:58.968Z,53.10
2018-01-27T09:41:58.961Z,55.30
2018-01-27T09:42:58.951Z,57.10
2018-01-27T09:43:58.944Z,56.80
2018-01-27T09:44:58.939Z,57.00
2018-01-27T09:45:58.931Z,58.10
2018-01-27T09:46:58.929Z,57.60
2018-01-27T09:47:58.922Z,57.50
2018-01-27T09:48:58.916Z,57.90
2018-01-27T09:49:58.909Z,56.40
2018-01-27T09:50:58.900Z,57.60
2018-01-27T09:51:58.892Z,56.10
2018-01-27T09:52:58.885Z,55.10
2018-01-27T09:53:58.877Z,55.50
2018-01-27T09:54:58.872Z,55.80
2018-01-27T09:55:58.865Z,55.30
2018-01-27T09:56:58.859Z,53.90
2018-01-27T09:57:58.851Z,51.80
2018-01-27T09:58:58.850Z,55.10
2018-01-27T09:59:58.844Z,53.40
2018-01-27T10:00:58.838Z,53.90
2018-01-27T10:01:58.830Z,52.70
2018-01-27T10:02:58.826Z,54.30
2018-01-27T10:03:58.819Z,51.00
2018-01-27T10:04:58.819Z,51.40
2018-01-27T10:05:58.808Z,50.10
2018-01-27T10:06:58.797Z,51.30
2018-01-27T10:07:58.793Z,51.80
2018-01-27T10:08:58.787Z,51.10
2018-01-27T10:09:58.779Z,50.00
2018-01-27T10:10:58.775Z,49.80
2018-01-27T10:11:58.769Z,50.40
2018-01-27T10:12:58.764Z,49.30
2018-01-27T10:13:58.759Z,50.10
2018-01-27T10:14:58.758Z,49.20
2018-01-27T10:15:58.754Z,48.20
2018-01-27T10:16:58.747Z,52.40
2018-01-27T10:17:58.742Z,51.70
2018-01-27T10:18:58.740Z,50.40
2018-01-27T10:19:58.735Z,47.20
2018-01-27T10:20:58.732Z,44.60
2018-01-27T10:21:58.728Z,43.50
2018-01-27T10:22:58.722Z,43.00
2018-01-27T10:23:58.718Z,45.20
2018-01-27T10:24:58.717Z,46.40
2018-01-27T10:25:58.714Z,45.30
2018-01-27T10:26:58.712Z,44.20
2018-01-27T10:27:58.711Z,45.70
2018-01-27T10:28:58.712Z,44.00
2018-01-27T10:29:58.708Z,44.50
2018-01-27T10:30:58.711Z,44.40
2018-01-27T10:31:58.711Z,45.10
2018-01-27T10:32:58.711Z,43.50
2018-01-27T10:33:58.709Z,42.90
2018-01-27T10:34:58.710Z,43.60
2018-01-27T10:35:58.711Z,44.20
2018-01-27T10:36:58.712Z,43.70
2018-01-27T10:37:58.711Z,43.40
2018-01-27T10:38:58.707Z,43.00
2018-01-27T10:39:58.709Z,44.10
2018-01-27T10:40:58.712Z,45.60
2018-01-27T10:41:58.712Z,43.30
2018-01-27T10:42:58.714Z,44.50
2018-01-27T10:43:58.715Z,42.60
2018-01-27T10:44:58.717Z,42.50
2018-01-27T10:45:58.718Z,42.30
2018-01-27T10:46:58.725Z,41.60
2018-01-27T10:47:58.726Z,43.80
2018-01-27T10:48:58.729Z,40.80
2018-01-27T10:49:58.730Z,42.00
2018-01-27T10:50:58.727Z,41.00
2018-01-27T10:51:58.729Z,41.20
2018-01-27T10:52:58.731Z,40.80
2018-01-27T10:53:58.733Z,40.30
2018-01-27T10:54:58.739Z,38.40
2018-01-27T10:55:58.740Z,39.90
2018-01-27T10:56:58.742Z,38.80
2018-01-27T10:57:58.741Z,40.50
2018-01-27T10:58:58.744Z,39.30
2018-01-27T10:59:58.746Z,39.80
2018-01-27T11:00:58.747Z,39.50
2018-01-27T11:01:58.747Z,37.80
2018-01-27T11:02:58.744Z,37.90
2018-01-27T11:03:58.745Z,39.00
2018-01-27T11:04:58.746Z,37.00
2018-01-27T11:05:58.746Z,35.10
2018-01-27T11:06:58.748Z,35.30
2018-01-27T11:07:58.751Z,36.30
2018-01-27T11:08:58.752Z,37.10
2018-01-27T11:09:58.752Z,36.10
2018-01-27T11:10:58.760Z,38.10
2018-01-27T11:11:58.762Z,38.00
2018-01-27T11:12:58.761Z,39.20
2018-01-27T11:13:58.762Z,39.40
2018-01-27T11:14:58.763Z,37.30
2018-01-27T11:15:58.766Z,39.70
2018-01-27T11:16:58.766Z,41.20
2018-01-27T11:17:58.765Z,37.90
2018-01-27T11:18:58.762Z,38.70
2018-01-27T11:19:58.763Z,39.40
2018-01-27T11:20:58.765Z,38.30
2018-01-27T11:21:58.763Z,37.80
2018-01-27T11:22:58.763Z,39.40
2018-01-27T11:23:58.764Z,38.70
2018-01-27T11:24:58.763Z,37.60
2018-01-27T11:25:58.763Z,38.80
2018-01-27T11:26:58.769Z,39.20
2018-01-27T11:27:58.768Z,39.10
2018-01-27T11:28:58.768Z,38.30
2018-01-27T11:29:58.768Z,39.90
2018-01-27T11:30:58.769Z,40.20
2018-01-27T11:31:58.768Z,36.90
2018-01-27T11:32:58.768Z,37.60
2018-01-27T11:33:58.766Z,39.90
2018-01-27T11:34:58.762Z,36.80
2018-01-27T11:35:58.765Z,36.30
2018-01-27T11:36:58.761Z,37.40
2018-01-27T11:37:58.760Z,36.30
2018-01-27T11:38:58.758Z,35.00
2018-01-27T11:39:58.759Z,36.20
2018-01-27T11:40:58.759Z,37.50
2018-01-27T11:41:58.756Z,36.20
2018-01-27T11:42:58.760Z,35.40
2018-01-27T11:43:58.759Z,35.60
2018-01-27T11:44:58.758Z,34.60
2018-01-27T11:45:58.756Z,33.50
2018-01-27T11:46:58.755Z,34.40
2018-01-27T11:47:58.752Z,32.80
2018-01-27T11:48:58.752Z,34.80
2018-01-27T11:49:58.749Z,33.40
2018-01-27T11:50:58.743Z,33.30
2018-01-27T11:51:58.742Z,32.40
2018-01-27T11:52:58.740Z,31.50
2018-01-27T11:53:58.742Z,32.70
2018-01-27T11:54:58.788Z,33.60
2018-01-27T11:55:58.738Z,33.00
2018-01-27T11:56:58.736Z,33.40
2018-01-27T11:57:58.733Z,32.60
2018-01-27T11:58:58.727Z,32.20
2018-01-27T11:59:58.725Z,33.10
2018-01-27T12:00:58.722Z,32.20
2018-01-27T12:01:58.719Z,30.70
2018-01-27T12:02:58.715Z,31.10
2018-01-27T12:03:58.715Z,31.40
2018-01-27T12:04:58.716Z,31.40
2018-01-27T12:05:58.708Z,32.40
2018-01-27T12:06:58.708Z,30.10
2018-01-27T12:07:58.706Z,30.30
2018-01-27T12:08:58.709Z,30.80
2018-01-27T12:09:58.701Z,30.60
2018-01-27T12:10:58.697Z,29.00
2018-01-27T12:11:58.694Z,28.60
2018-01-27T12:12:58.691Z,28.30
2018-01-27T12:13:58.686Z,29.50
2018-01-27T12:14:58.681Z,27.60
2018-01-27T12:15:58.677Z,27.60
2018-01-27T12:16:58.674Z,27.20
2018-01-27T12:17:58.671Z,27.60
2018-01-27T12:18:58.670Z,26.50
2018-01-27T12:19:58.665Z,27.20
2018-01-27T12:20:58.662Z,27.00
2018-01-27T12:21:58.659Z,27.00
2018-01-27T12:22:58.660Z,26.70
2018-01-27T12:23:58.658Z,26.30
2018-01-27T12:24:58.654Z,26.60
2018-01-27T12:25:58.651Z,27.30
2018-01-27T12:26:58.648Z,28.20
2018-01-27T12:27:58.646Z,27.60
2018-01-27T12:28:58.643Z,31.40
2018-01-27T12:29:58.639Z,27.50
2018-01-27T12:30:58.633Z,27.70
2018-01-27T12:31:58.630Z,31.10
2018-01-27T12:32:58.627Z,29.10
2018-01-27T12:33:58.623Z,26.80
2018-01-27T12:34:58.621Z,28.20
2018-01-27T12:35:58.622Z,30.60
2018-01-27T12:36:58.616Z,30.00
2018-01-27T12:37:58.612Z,29.50
2018-01-27T12:38:58.613Z,29.60
2018-01-27T12:39:58.610Z,31.20
2018-01-27T12:40:58.608Z,29.00
2018-01-27T12:41:58.608Z,29.20
2018-01-27T12:42:58.601Z,29.90
2018-01-27T12:43:58.599Z,27.50
2018-01-27T12:44:58.601Z,28.30
2018-01-27T12:45:58.592Z,28.70
2018-01-27T12:46:58.586Z,28.90
2018-01-27T12:47:58.583Z,29.10
2018-01-27T12:48:58.581Z,27.90
2018-01-27T12:49:58.580Z,29.10
2018-01-27T12:50:58.574Z,29.60
2018-01-27T12:51:58.570Z,30.50